createdAt,value
2022-11-15T00:01:43.567Z,7.10
2022-11-15T00:04:45.483Z,7.05
2022-11-15T00:07:55.730Z,7.41
2022-11-15T00:10:58.713Z,6.87
2022-11-15T00:14:03.325Z,6.97
2022-11-15T00:17:05.127Z,6.78
2022-11-15T00:20:07.227Z,6.52
2022-11-15T00:23:09.010Z,7.55
2022-11-15T00:26:12.416Z,7.40
2022-11-15T00:29:14.241Z,8.00
2022-11-15T00:32:16.019Z,8.39
2022-11-15T00:35:17.983Z,8.56
2022-11-15T00:38:19.772Z,7.47
2022-11-15T00:41:21.592Z,6.90
2022-11-15T00:44:23.380Z,7.25
2022-11-15T00:47:25.199Z,6.64
2022-11-15T00:50:26.978Z,7.12
2022-11-15T00:53:29.140Z,6.98
2022-11-15T00:56:31.190Z,6.73
2022-11-15T00:59:33.038Z,7.15
2022-11-15T01:02:35.142Z,7.33
2022-11-15T01:05:38.277Z,6.69
2022-11-15T01:08:40.751Z,8.11
2022-11-15T01:11:42.527Z,8.31
2022-11-15T01:14:44.333Z,8.41
2022-11-15T01:17:46.124Z,7.25
2022-11-15T01:20:47.956Z,6.82
2022-11-15T01:23:49.727Z,7.74
2022-11-15T01:26:51.728Z,7.30
2022-11-15T01:29:53.520Z,7.77
2022-11-15T01:32:55.426Z,7.12
2022-11-15T01:35:57.428Z,6.89
2022-11-15T01:38:59.663Z,6.81
2022-11-15T01:42:01.473Z,7.18
2022-11-15T01:45:03.501Z,6.71
2022-11-15T01:48:05.563Z,7.14
2022-11-15T01:51:08.325Z,7.21
2022-11-15T01:54:11.811Z,7.28
2022-11-15T01:57:13.592Z,6.48
2022-11-15T02:00:15.792Z,7.02
2022-11-15T02:03:17.592Z,6.85
2022-11-15T02:06:19.672Z,6.74
2022-11-15T02:09:21.649Z,7.14
2022-11-15T02:12:23.473Z,7.10
2022-11-15T02:15:25.597Z,6.70
2022-11-15T02:18:36.949Z,6.83
2022-11-15T02:21:50.771Z,6.62
2022-11-15T02:24:52.536Z,6.73
2022-11-15T02:28:04.565Z,6.76
2022-11-15T02:31:06.524Z,7.53
2022-11-15T02:34:24.412Z,6.89
2022-11-15T02:37:45.066Z,6.74
2022-11-15T02:40:46.877Z,6.73
2022-11-15T02:44:00.282Z,7.03
2022-11-15T02:47:15.222Z,7.20
2022-11-15T02:50:17.992Z,6.97
2022-11-15T02:53:21.957Z,7.32
2022-11-15T02:56:23.800Z,7.98
2022-11-15T02:59:37.622Z,7.54
2022-11-15T03:02:39.390Z,7.72
2022-11-15T03:05:59.715Z,7.03
2022-11-15T03:09:12.773Z,7.53
2022-11-15T03:12:16.869Z,6.84
2022-11-15T03:15:31.935Z,7.66
2022-11-15T03:18:37.655Z,7.47
2022-11-15T03:21:39.583Z,7.46
2022-11-15T03:24:41.426Z,6.75
2022-11-15T03:27:44.793Z,7.54
2022-11-15T03:30:46.661Z,7.12
2022-11-15T03:33:48.762Z,7.51
2022-11-15T03:36:50.567Z,7.87
2022-11-15T03:39:52.373Z,7.63
2022-11-15T03:42:54.124Z,7.38
2022-11-15T03:45:57.481Z,8.01
2022-11-15T03:49:06.874Z,8.22
2022-11-15T03:52:08.733Z,7.11
2022-11-15T03:55:12.589Z,7.00
2022-11-15T03:58:14.439Z,7.66
2022-11-15T04:01:16.364Z,6.82
2022-11-15T04:04:18.322Z,7.54
2022-11-15T04:07:20.178Z,7.72
2022-11-15T04:10:22.176Z,7.80
2022-11-15T04:13:24.008Z,8.25
2022-11-15T04:16:25.793Z,7.72
2022-11-15T04:19:46.428Z,7.72
2022-11-15T04:23:06.774Z,7.73
2022-11-15T04:26:18.836Z,7.52
2022-11-15T04:29:35.912Z,7.89
2022-11-15T04:32:37.759Z,8.01
2022-11-15T04:35:39.791Z,7.14
2022-11-15T04:38:41.583Z,7.03
2022-11-15T04:41:43.399Z,8.00
2022-11-15T04:44:45.165Z,7.85
2022-11-15T04:47:47.018Z,7.35
2022-11-15T04:50:49.190Z,7.56
2022-11-15T04:53:51.005Z,7.41
2022-11-15T04:56:52.844Z,7.44
2022-11-15T04:59:54.720Z,7.47
2022-11-15T05:03:15.323Z,7.39
2022-11-15T05:06:17.137Z,7.76
2022-11-15T05:09:19.655Z,7.48
2022-11-15T05:12:21.532Z,7.74
2022-11-15T05:15:23.352Z,8.29
2022-11-15T05:18:25.162Z,7.95
2022-11-15T05:21:27.019Z,7.40
2022-11-15T05:24:28.792Z,8.18
2022-11-15T05:27:30.604Z,8.11
2022-11-15T05:30:32.439Z,8.05
2022-11-15T05:33:34.948Z,8.11
2022-11-15T05:36:38.687Z,7.31
2022-11-15T05:39:40.508Z,8.44
2022-11-15T05:42:42.288Z,8.30
2022-11-15T05:45:44.114Z,8.49
2022-11-15T05:48:46.649Z,8.93
2022-11-15T05:51:48.566Z,8.35
2022-11-15T05:54:50.385Z,8.44
2022-11-15T05:57:52.274Z,8.43
2022-11-15T06:00:54.220Z,8.84
2022-11-15T06:03:56.029Z,8.56
2022-11-15T06:06:59.259Z,9.08
2022-11-15T06:10:01.081Z,9.14
2022-11-15T06:13:04.308Z,9.20
2022-11-15T06:16:06.583Z,9.53
2022-11-15T06:19:08.647Z,9.17
2022-11-15T06:22:10.685Z,8.51
2022-11-15T06:25:12.608Z,8.24
2022-11-15T06:28:14.423Z,8.71
2022-11-15T06:31:16.261Z,9.58
2022-11-15T06:34:18.081Z,8.78
2022-11-15T06:37:20.023Z,8.32
2022-11-15T06:40:21.905Z,8.43
2022-11-15T06:43:23.837Z,9.00
2022-11-15T06:46:25.682Z,8.67
2022-11-15T06:49:27.889Z,8.44
2022-11-15T06:52:33.511Z,9.07
2022-11-15T06:58:43.247Z,8.12
2022-11-15T07:01:45.137Z,8.93
2022-11-15T07:04:47.184Z,8.58
2022-11-15T07:07:53.247Z,8.67
2022-11-15T07:10:55.208Z,8.92
2022-11-15T07:13:57.016Z,8.81
2022-11-15T07:16:58.901Z,9.10
2022-11-15T07:20:00.768Z,8.83
2022-11-15T07:23:06.145Z,8.35
2022-11-15T07:26:08.600Z,8.58
2022-11-15T07:29:10.576Z,8.68
2022-11-15T07:32:14.758Z,9.22
2022-11-15T07:35:16.820Z,9.34
2022-11-15T07:38:21.695Z,9.26
2022-11-15T07:41:23.613Z,9.41
2022-11-15T07:44:26.356Z,9.85
2022-11-15T07:47:29.420Z,9.40
2022-11-15T07:50:32.112Z,9.50
2022-11-15T07:53:34.475Z,8.55
2022-11-15T07:56:36.593Z,8.86
2022-11-15T07:59:38.444Z,9.36
2022-11-15T08:02:40.462Z,9.78
2022-11-15T08:05:43.170Z,9.71
2022-11-15T08:08:45.023Z,9.83
2022-11-15T08:11:46.985Z,9.80
2022-11-15T08:14:49.556Z,10.15
2022-11-15T08:17:54.554Z,10.02
2022-11-15T08:20:59.718Z,10.07
2022-11-15T08:24:01.711Z,9.45
2022-11-15T08:27:03.763Z,9.37
2022-11-15T08:30:06.386Z,9.76
2022-11-15T08:33:10.421Z,8.87
2022-11-15T08:36:16.278Z,9.29
2022-11-15T08:39:18.121Z,9.20
2022-11-15T08:42:20.346Z,8.73
2022-11-15T08:45:22.446Z,9.93
2022-11-15T08:48:24.256Z,10.59
2022-11-15T08:51:26.082Z,10.64
2022-11-15T08:54:27.889Z,10.88
2022-11-15T08:57:31.277Z,10.82
2022-11-15T09:00:33.338Z,11.27
2022-11-15T09:03:35.207Z,10.34
2022-11-15T09:06:40.918Z,9.83
2022-11-15T09:09:45.056Z,10.99
2022-11-15T09:12:49.450Z,10.63
2022-11-15T09:15:54.354Z,10.71
2022-11-15T09:18:56.277Z,10.78
2022-11-15T09:21:58.115Z,10.18
2022-11-15T09:24:59.947Z,10.06
2022-11-15T09:28:01.856Z,10.96
2022-11-15T09:31:04.785Z,10.23
2022-11-15T09:34:06.600Z,10.48
2022-11-15T09:37:08.573Z,9.62
2022-11-15T09:40:16.405Z,10.52
2022-11-15T09:43:37.594Z,10.18
2022-11-15T09:46:45.190Z,9.17
2022-11-15T09:49:52.649Z,10.36
2022-11-15T09:52:57.038Z,11.15
2022-11-15T09:56:03.055Z,11.13
2022-11-15T09:59:07.708Z,10.44
2022-11-15T10:02:15.433Z,10.90
2022-11-15T10:05:18.222Z,11.17
2022-11-15T10:08:20.016Z,11.03
2022-11-15T10:11:37.160Z,10.19
2022-11-15T10:14:40.304Z,11.36
2022-11-15T10:17:51.633Z,11.06
2022-11-15T10:20:55.614Z,10.01
2022-11-15T10:23:57.447Z,10.57
2022-11-15T10:26:59.551Z,10.58
2022-11-15T10:30:01.563Z,11.24
2022-11-15T10:33:14.654Z,10.77
2022-11-15T10:36:17.740Z,11.22
2022-11-15T10:39:19.556Z,10.47
2022-11-15T10:42:28.192Z,11.61
2022-11-15T10:45:31.374Z,11.02
2022-11-15T10:48:33.474Z,11.08
2022-11-15T10:51:35.912Z,10.21
2022-11-15T10:54:57.995Z,10.93
2022-11-15T10:58:07.793Z,11.04
2022-11-15T11:01:10.551Z,11.58
2022-11-15T11:04:12.654Z,11.40
2022-11-15T11:07:21.805Z,11.33
2022-11-15T11:10:49.627Z,11.97
2022-11-15T11:13:45.516Z,12.18
2022-11-15T11:16:53.336Z,11.42
2022-11-15T11:20:01.207Z,11.36
2022-11-15T11:23:21.851Z,11.22
2022-11-15T11:26:42.659Z,11.97
2022-11-15T11:29:47.481Z,12.36
2022-11-15T11:32:55.685Z,11.82
2022-11-15T11:36:04.704Z,12.18
2022-11-15T11:39:24.891Z,11.71
2022-11-15T11:42:30.024Z,11.29
2022-11-15T11:45:43.448Z,11.45
2022-11-15T11:49:00.284Z,11.02
2022-11-15T11:52:02.232Z,11.00
2022-11-15T11:55:15.352Z,11.65
2022-11-15T11:58:20.814Z,11.48
2022-11-15T12:01:31.223Z,9.90
2022-11-15T12:04:40.229Z,10.70
2022-11-15T12:07:42.203Z,11.38
2022-11-15T12:10:45.248Z,11.52
2022-11-15T12:13:48.150Z,12.03
2022-11-15T12:16:49.951Z,11.75
2022-11-15T12:19:52.638Z,12.03
2022-11-15T12:22:56.142Z,12.25
2022-11-15T12:26:01.047Z,12.38
2022-11-15T12:29:07.796Z,12.08
2022-11-15T12:32:24.119Z,11.38
2022-11-15T12:35:31.842Z,12.15
2022-11-15T12:38:52.564Z,12.07
2022-11-15T12:41:57.543Z,12.38
2022-11-15T12:45:00.490Z,11.70
2022-11-15T12:48:17.716Z,11.95
2022-11-15T12:51:23.679Z,10.64
2022-11-15T12:54:25.752Z,11.17
2022-11-15T12:57:29.540Z,11.69
2022-11-15T13:00:34.505Z,11.88
2022-11-15T13:03:36.600Z,11.52
2022-11-15T13:06:49.611Z,11.87
2022-11-15T13:09:52.464Z,11.52
2022-11-15T13:13:01.847Z,11.09
2022-11-15T13:16:04.092Z,11.51
2022-11-15T13:19:06.018Z,11.66
2022-11-15T13:22:29.391Z,11.46
2022-11-15T13:25:37.388Z,11.17
2022-11-15T13:28:42.326Z,11.43
2022-11-15T13:31:44.557Z,11.50
2022-11-15T13:34:52.335Z,11.85
2022-11-15T13:37:55.292Z,11.86
2022-11-15T13:40:57.711Z,11.68
2022-11-15T13:43:59.948Z,12.04
2022-11-15T13:47:06.088Z,11.78
2022-11-15T13:50:12.495Z,11.72
2022-11-15T13:53:14.661Z,11.24
2022-11-15T13:56:17.346Z,11.19
2022-11-15T13:59:22.266Z,10.29
2022-11-15T14:02:31.535Z,11.36
2022-11-15T14:05:33.426Z,10.75
2022-11-15T14:08:36.159Z,11.15
2022-11-15T14:11:38.807Z,10.13
2022-11-15T14:14:46.090Z,11.01
2022-11-15T14:17:50.207Z,10.80
2022-11-15T14:20:53.577Z,11.19
2022-11-15T14:24:14.860Z,11.18
2022-11-15T14:27:17.577Z,11.54
2022-11-15T14:30:19.536Z,11.31
2022-11-15T14:33:33.553Z,11.63
2022-11-15T14:36:35.432Z,11.08
2022-11-15T14:39:37.364Z,11.08
2022-11-15T14:42:39.249Z,11.26
2022-11-15T14:45:41.643Z,11.29
2022-11-15T14:48:43.670Z,10.26
2022-11-15T14:51:45.720Z,10.44
2022-11-15T14:54:47.661Z,10.74
2022-11-15T14:57:49.471Z,11.03
2022-11-15T15:00:51.328Z,10.56
2022-11-15T15:03:55.148Z,11.32
2022-11-15T15:06:57.390Z,11.06
2022-11-15T15:10:24.602Z,11.03
2022-11-15T15:13:21.889Z,10.54
2022-11-15T15:16:24.156Z,10.96
2022-11-15T15:19:26.329Z,11.22
2022-11-15T15:22:28.842Z,11.33
2022-11-15T15:25:34.486Z,11.05
2022-11-15T15:28:36.856Z,11.07
2022-11-15T15:31:39.163Z,11.43
2022-11-15T15:34:41.048Z,10.87
2022-11-15T15:37:43.096Z,10.85
2022-11-15T15:40:44.960Z,10.24
2022-11-15T15:43:46.887Z,11.05
2022-11-15T15:46:48.748Z,11.12
2022-11-15T15:49:50.972Z,11.12
2022-11-15T15:52:53.426Z,10.58
2022-11-15T15:55:55.269Z,10.73
2022-11-15T15:58:57.051Z,11.26
2022-11-15T16:01:59.006Z,10.76
2022-11-15T16:05:01.036Z,10.87
2022-11-15T16:08:02.853Z,11.26
2022-11-15T16:11:07.218Z,11.24
2022-11-15T16:14:09.174Z,10.67
2022-11-15T16:17:21.175Z,11.01
2022-11-15T16:20:33.501Z,11.33
2022-11-15T16:23:35.404Z,10.98
2022-11-15T16:26:37.272Z,11.03
2022-11-15T16:29:39.129Z,10.97
2022-11-15T16:32:40.948Z,10.79
2022-11-15T16:35:42.880Z,11.05
2022-11-15T16:38:44.633Z,10.76
2022-11-15T16:41:47.781Z,10.22
2022-11-15T16:44:49.692Z,10.69
2022-11-15T16:47:51.729Z,10.80
2022-11-15T16:50:59.525Z,11.15
2022-11-15T16:54:01.372Z,10.85
2022-11-15T16:57:03.289Z,11.01
2022-11-15T17:00:06.451Z,10.79
2022-11-15T17:03:08.297Z,11.05
2022-11-15T17:06:10.422Z,10.90
2022-11-15T17:09:19.594Z,10.82
2022-11-15T17:12:21.426Z,10.92
2022-11-15T17:15:24.577Z,11.13
2022-11-15T17:18:26.407Z,10.94
2022-11-15T17:21:33.407Z,10.37
2022-11-15T17:24:35.732Z,10.40
2022-11-15T17:27:37.603Z,10.16
2022-11-15T17:30:43.318Z,10.98
2022-11-15T17:33:45.132Z,10.91
2022-11-15T17:36:47.686Z,10.82
2022-11-15T17:39:49.626Z,9.99
2022-11-15T17:42:51.475Z,10.55
2022-11-15T17:45:53.298Z,10.23
2022-11-15T17:48:55.546Z,10.56
2022-11-15T17:51:57.547Z,10.07
2022-11-15T17:54:59.392Z,10.63
2022-11-15T17:58:01.326Z,10.39
2022-11-15T18:01:06.085Z,10.14
2022-11-15T18:04:08.474Z,10.99
2022-11-15T18:07:12.391Z,10.97
2022-11-15T18:10:14.328Z,11.06
2022-11-15T18:13:16.427Z,11.18
2022-11-15T18:16:18.933Z,11.00
2022-11-15T18:19:20.881Z,11.13
2022-11-15T18:22:23.511Z,10.70
2022-11-15T18:25:25.352Z,11.02
2022-11-15T18:28:32.115Z,10.73
2022-11-15T18:31:34.204Z,10.52
2022-11-15T18:34:36.098Z,10.68
2022-11-15T18:37:37.929Z,11.20
2022-11-15T18:40:39.768Z,10.65
2022-11-15T18:43:41.556Z,10.57
2022-11-15T18:46:45.092Z,10.55
2022-11-15T18:49:46.921Z,11.06
2022-11-15T18:52:48.772Z,11.06
2022-11-15T18:55:50.706Z,10.23
2022-11-15T18:58:54.510Z,10.68
2022-11-15T19:01:56.962Z,10.57
2022-11-15T19:04:58.853Z,10.91
2022-11-15T19:08:00.779Z,11.05
2022-11-15T19:11:24.064Z,10.82
2022-11-15T19:14:26.313Z,11.17
2022-11-15T19:17:28.346Z,11.18
2022-11-15T19:20:30.151Z,10.83
2022-11-15T19:23:39.074Z,11.11
2022-11-15T19:26:40.959Z,10.64
2022-11-15T19:29:42.791Z,10.26
2022-11-15T19:32:44.649Z,10.93
2022-11-15T19:35:46.786Z,11.06
2022-11-15T19:38:48.704Z,11.26
2022-11-15T19:41:50.684Z,10.70
2022-11-15T19:44:52.680Z,10.93
2022-11-15T19:47:54.608Z,11.16
2022-11-15T19:50:59.500Z,11.38
2022-11-15T19:54:06.214Z,11.16
2022-11-15T19:57:08.182Z,11.31
2022-11-15T20:00:10.680Z,10.86
2022-11-15T20:03:12.536Z,11.21
2022-11-15T20:06:18.460Z,11.05
2022-11-15T20:09:20.915Z,10.37
2022-11-15T20:12:22.733Z,10.73
2022-11-15T20:15:24.560Z,9.96
2022-11-15T20:18:26.963Z,10.50
2022-11-15T20:21:28.838Z,9.65
2022-11-15T20:24:31.398Z,9.85
2022-11-15T20:27:33.225Z,9.99
2022-11-15T20:30:35.038Z,10.22
2022-11-15T20:33:36.899Z,9.65
2022-11-15T20:36:38.889Z,9.73
2022-11-15T20:39:40.672Z,10.43
2022-11-15T20:42:42.490Z,11.17
2022-11-15T20:45:44.897Z,10.44
2022-11-15T20:48:46.694Z,11.03
2022-11-15T20:51:48.592Z,10.65
2022-11-15T20:54:50.643Z,11.11
2022-11-15T20:57:52.636Z,10.31
2022-11-15T21:00:55.649Z,11.08
2022-11-15T21:03:57.556Z,11.35
2022-11-15T21:06:59.441Z,11.38
2022-11-15T21:10:19.885Z,10.47
2022-11-15T21:13:21.890Z,11.16
2022-11-15T21:16:23.901Z,11.22
2022-11-15T21:19:29.151Z,10.98
2022-11-15T21:22:35.767Z,10.06
2022-11-15T21:25:37.588Z,10.37
2022-11-15T21:28:39.976Z,10.03
2022-11-15T21:31:41.822Z,10.98
2022-11-15T21:34:43.741Z,11.33
2022-11-15T21:37:45.582Z,11.17
2022-11-15T21:40:47.404Z,11.00
2022-11-15T21:43:49.207Z,10.64
2022-11-15T21:46:51.298Z,10.65
2022-11-15T21:49:53.164Z,10.66
2022-11-15T21:52:55.011Z,10.78
2022-11-15T21:55:56.955Z,10.43
2022-11-15T21:58:58.797Z,10.14
2022-11-15T22:02:15.534Z,9.55
2022-11-15T22:05:17.360Z,9.57
2022-11-15T22:08:19.224Z,9.86
2022-11-15T22:11:21.032Z,9.65
2022-11-15T22:14:22.878Z,10.16
2022-11-15T22:17:44.683Z,9.95
2022-11-15T22:20:53.410Z,10.10
2022-11-15T22:23:55.223Z,10.63
2022-11-15T22:26:57.023Z,10.50
2022-11-15T22:29:58.842Z,10.25
2022-11-15T22:33:00.665Z,11.08
2022-11-15T22:36:02.728Z,9.39
2022-11-15T22:39:04.690Z,9.96
2022-11-15T22:42:06.513Z,9.74
2022-11-15T22:45:08.438Z,9.13
2022-11-15T22:48:10.241Z,9.47
2022-11-15T22:51:12.080Z,10.06
2022-11-15T22:54:13.908Z,9.25
2022-11-15T22:57:15.754Z,9.75
2022-11-15T23:00:17.903Z,9.80
2022-11-15T23:03:20.128Z,10.35
2022-11-15T23:06:22.012Z,10.38
2022-11-15T23:09:23.884Z,10.36
2022-11-15T23:12:44.664Z,10.61
2022-11-15T23:16:06.481Z,10.81
2022-11-15T23:19:09.686Z,10.58
2022-11-15T23:22:30.206Z,11.15
2022-11-15T23:25:32.175Z,11.33
2022-11-15T23:28:34.480Z,11.12
2022-11-15T23:32:01.524Z,10.03
2022-11-15T23:35:04.246Z,10.65
2022-11-15T23:38:06.044Z,10.83
2022-11-15T23:41:07.829Z,10.83
2022-11-15T23:44:09.644Z,10.60
2022-11-15T23:47:11.461Z,10.17
2022-11-15T23:50:13.309Z,9.98
2022-11-15T23:53:15.645Z,9.87
2022-11-15T23:56:18.333Z,9.77
2022-11-15T23:59:20.114Z,10.04
